createdAt,value
2022-10-15T00:02:01.018Z,26.95
2022-10-15T00:04:34.761Z,25.42
2022-10-15T00:07:08.062Z,27.30
2022-10-15T00:09:35.158Z,26.58
2022-10-15T00:12:02.042Z,25.98
2022-10-15T00:14:36.025Z,25.73
2022-10-15T00:17:03.020Z,25.38
2022-10-15T00:19:37.090Z,24.80
2022-10-15T00:22:04.090Z,26.17
2022-10-15T00:24:37.050Z,27.65
2022-10-15T00:27:04.039Z,28.85
2022-10-15T00:29:37.021Z,28.27
2022-10-15T00:32:03.910Z,30.92
2022-10-15T00:34:37.037Z,29.48
2022-10-15T00:37:03.926Z,31.05
2022-10-15T00:39:37.064Z,30.13
2022-10-15T00:42:04.244Z,30.35
2022-10-15T00:44:37.084Z,30.08
2022-10-15T00:47:50.476Z,29.80
2022-10-15T00:50:29.044Z,30.40
2022-10-15T00:53:18.049Z,31.92
2022-10-15T00:55:44.952Z,28.40
2022-10-15T00:58:24.046Z,26.88
2022-10-15T01:00:50.975Z,26.23
2022-10-15T01:03:24.052Z,26.38
2022-10-15T01:05:59.082Z,26.35
2022-10-15T01:08:25.962Z,25.38
2022-10-15T01:11:24.043Z,25.83
2022-10-15T01:14:47.057Z,28.80
2022-10-15T01:18:01.089Z,28.08
2022-10-15T01:20:46.051Z,25.38
2022-10-15T01:24:05.492Z,25.25
2022-10-15T01:27:16.057Z,23.95
2022-10-15T01:29:55.095Z,23.23
2022-10-15T01:32:28.814Z,24.05
2022-10-15T01:35:57.511Z,24.42
2022-10-15T01:38:49.081Z,24.73
2022-10-15T01:41:33.082Z,26.00
2022-10-15T01:44:04.367Z,25.40
2022-10-15T01:46:54.070Z,26.80
2022-10-15T01:49:23.046Z,24.30
2022-10-15T01:51:50.034Z,25.33
2022-10-15T01:54:25.088Z,24.92
2022-10-15T01:56:51.964Z,23.92
2022-10-15T01:59:31.054Z,23.55
2022-10-15T02:01:58.297Z,22.38
2022-10-15T02:04:38.094Z,24.17
2022-10-15T02:07:23.344Z,22.42
2022-10-15T02:10:23.137Z,23.15
2022-10-15T02:13:09.284Z,24.95
2022-10-15T02:16:09.104Z,24.90
2022-10-15T02:18:47.550Z,24.73
2022-10-15T02:21:29.140Z,24.73
2022-10-15T02:24:17.830Z,22.73
2022-10-15T02:26:51.116Z,23.08
2022-10-15T02:29:21.365Z,22.23
2022-10-15T02:31:55.094Z,23.50
2022-10-15T02:34:22.999Z,22.15
2022-10-15T02:36:56.143Z,24.13
2022-10-15T02:39:23.655Z,22.15
2022-10-15T02:41:58.167Z,21.30
2022-10-15T02:44:31.122Z,22.10
2022-10-15T02:46:58.570Z,21.33
2022-10-15T02:49:32.158Z,23.15
2022-10-15T02:52:06.129Z,24.80
2022-10-15T02:54:39.121Z,22.02
2022-10-15T02:57:12.111Z,24.73
2022-10-15T02:59:38.955Z,21.83
2022-10-15T03:02:15.358Z,22.48
2022-10-15T03:04:45.339Z,25.90
2022-10-15T03:07:19.106Z,25.30
2022-10-15T03:09:45.994Z,24.77
2022-10-15T03:12:12.867Z,24.20
2022-10-15T03:14:46.125Z,25.45
2022-10-15T03:17:12.964Z,23.40
2022-10-15T03:19:46.134Z,23.42
2022-10-15T03:22:13.000Z,22.35
2022-10-15T03:24:46.128Z,22.20
2022-10-15T03:27:12.999Z,21.92
2022-10-15T03:29:39.842Z,22.35
2022-10-15T03:32:13.166Z,24.00
2022-10-15T03:34:46.144Z,22.27
2022-10-15T03:37:19.136Z,23.00
2022-10-15T03:39:46.034Z,24.52
2022-10-15T03:42:20.434Z,23.60
2022-10-15T03:44:54.131Z,22.52
2022-10-15T03:47:21.017Z,22.17
2022-10-15T03:49:54.150Z,21.27
2022-10-15T03:52:21.238Z,21.75
2022-10-15T03:54:48.274Z,23.45
2022-10-15T03:57:21.136Z,21.00
2022-10-15T03:59:48.016Z,21.48
2022-10-15T04:02:15.002Z,22.27
2022-10-15T04:04:48.148Z,22.50
2022-10-15T04:07:21.171Z,23.98
2022-10-15T04:09:48.179Z,21.38
2022-10-15T04:12:22.516Z,23.92
2022-10-15T04:14:49.557Z,23.52
2022-10-15T04:17:17.728Z,24.45
2022-10-15T04:19:51.181Z,23.98
2022-10-15T04:22:18.219Z,25.60
2022-10-15T04:24:51.146Z,23.35
2022-10-15T04:27:18.221Z,22.23
2022-10-15T04:29:54.155Z,23.88
2022-10-15T04:32:21.248Z,23.38
2022-10-15T04:34:55.197Z,23.02
2022-10-15T04:37:22.320Z,23.02
2022-10-15T04:39:56.167Z,22.58
2022-10-15T04:42:29.164Z,21.73
2022-10-15T04:45:02.147Z,22.58
2022-10-15T04:47:35.185Z,21.65
2022-10-15T04:50:02.076Z,22.67
2022-10-15T04:52:35.180Z,23.63
2022-10-15T04:55:02.245Z,22.95
2022-10-15T04:57:38.165Z,21.88
2022-10-15T05:00:06.239Z,23.30
2022-10-15T05:02:39.195Z,21.67
2022-10-15T05:05:06.687Z,22.08
2022-10-15T05:07:40.173Z,22.13
2022-10-15T05:10:07.929Z,21.27
2022-10-15T05:15:09.502Z,21.88
2022-10-15T05:17:36.427Z,21.98
2022-10-15T05:20:10.257Z,21.50
2022-10-15T05:22:37.129Z,21.38
2022-10-15T05:25:11.233Z,21.77
2022-10-15T05:27:38.114Z,21.25
2022-10-15T05:30:12.287Z,21.55
2022-10-15T05:32:39.491Z,22.17
2022-10-15T05:35:06.926Z,24.13
2022-10-15T05:37:40.205Z,23.27
2022-10-15T05:40:08.103Z,22.92
2022-10-15T05:42:41.302Z,21.83
2022-10-15T05:45:15.229Z,22.80
2022-10-15T05:47:42.071Z,22.70
2022-10-15T05:50:15.234Z,26.15
2022-10-15T05:52:42.085Z,26.27
2022-10-15T05:55:22.208Z,25.52
2022-10-15T05:57:49.075Z,24.40
2022-10-15T06:00:16.221Z,26.45
2022-10-15T06:02:49.352Z,25.83
2022-10-15T06:05:16.349Z,25.35
2022-10-15T06:07:49.223Z,24.48
2022-10-15T06:10:16.211Z,26.13
2022-10-15T06:12:49.234Z,23.98
2022-10-15T06:15:23.232Z,23.40
2022-10-15T06:18:01.294Z,23.45
2022-10-15T06:20:35.249Z,23.27
2022-10-15T06:23:02.869Z,21.38
2022-10-15T06:25:36.248Z,23.80
2022-10-15T06:28:04.235Z,26.77
2022-10-15T06:30:37.275Z,26.25
2022-10-15T06:33:04.271Z,26.70
2022-10-15T06:35:37.247Z,24.95
2022-10-15T06:38:04.692Z,25.08
2022-10-15T06:40:38.238Z,25.77
2022-10-15T06:43:09.819Z,24.45
2022-10-15T06:45:47.243Z,23.35
2022-10-15T06:48:20.246Z,21.85
2022-10-15T06:50:53.269Z,21.60
2022-10-15T06:53:20.169Z,22.25
2022-10-15T06:55:47.030Z,21.80
2022-10-15T06:58:20.265Z,22.25
2022-10-15T07:00:47.147Z,21.85
2022-10-15T07:03:20.296Z,22.27
2022-10-15T07:05:47.198Z,22.15
2022-10-15T07:08:18.387Z,21.85
2022-10-15T07:10:53.287Z,22.90
2022-10-15T07:13:20.138Z,23.08
2022-10-15T07:15:53.289Z,22.48
2022-10-15T07:18:20.517Z,21.17
2022-10-15T07:20:54.240Z,24.20
2022-10-15T07:23:24.179Z,24.40
2022-10-15T07:26:00.280Z,24.88
2022-10-15T07:28:28.777Z,25.58
2022-10-15T07:31:06.339Z,27.15
2022-10-15T07:33:33.200Z,26.73
2022-10-15T07:36:05.712Z,26.88
2022-10-15T07:38:40.347Z,27.02
2022-10-15T07:41:08.311Z,27.33
2022-10-15T07:43:42.282Z,28.77
2022-10-15T07:46:09.200Z,26.65
2022-10-15T07:48:42.315Z,29.30
2022-10-15T07:51:10.457Z,27.70
2022-10-15T07:53:44.296Z,28.88
2022-10-15T07:56:18.297Z,27.30
2022-10-15T07:58:45.484Z,29.27
2022-10-15T08:01:19.320Z,31.13
2022-10-15T08:03:53.297Z,32.00
2022-10-15T08:06:20.157Z,31.58
2022-10-15T08:08:53.331Z,30.75
2022-10-15T08:11:20.222Z,29.95
2022-10-15T08:13:53.406Z,30.40
2022-10-15T08:16:27.405Z,33.28
2022-10-15T08:18:54.307Z,31.60
2022-10-15T08:21:24.308Z,32.63
2022-10-15T08:23:58.337Z,34.15
2022-10-15T08:26:25.172Z,31.95
2022-10-15T08:28:52.081Z,34.22
2022-10-15T08:31:25.317Z,35.83
2022-10-15T08:33:52.489Z,31.38
2022-10-15T08:36:26.308Z,32.67
2022-10-15T08:38:53.174Z,32.67
2022-10-15T08:41:47.320Z,34.40
2022-10-15T08:44:27.261Z,33.83
2022-10-15T08:47:12.363Z,34.22
2022-10-15T08:49:47.047Z,33.42
2022-10-15T08:52:33.315Z,30.70
2022-10-15T08:55:02.399Z,32.13
2022-10-15T08:58:20.326Z,31.55
2022-10-15T09:00:54.002Z,32.45
2022-10-15T09:04:02.374Z,32.80
2022-10-15T09:06:33.508Z,29.75
2022-10-15T09:09:19.327Z,30.42
2022-10-15T09:11:58.457Z,31.75
2022-10-15T09:14:40.325Z,30.75
2022-10-15T09:17:32.383Z,28.63
2022-10-15T09:19:59.387Z,28.63
2022-10-15T09:22:37.398Z,28.95
2022-10-15T09:25:27.472Z,31.63
2022-10-15T09:27:56.746Z,28.83
2022-10-15T09:30:59.384Z,30.00
2022-10-15T09:33:44.389Z,32.35
2022-10-15T09:36:17.269Z,29.83
2022-10-15T09:39:28.389Z,28.30
2022-10-15T09:42:13.962Z,30.02
2022-10-15T09:44:50.394Z,33.42
2022-10-15T09:47:31.740Z,32.35
2022-10-15T09:50:05.477Z,32.95
2022-10-15T09:53:25.987Z,34.10
2022-10-15T09:56:11.264Z,33.95
2022-10-15T09:59:05.929Z,35.55
2022-10-15T10:01:36.573Z,34.75
2022-10-15T10:04:26.457Z,36.10
2022-10-15T10:06:55.609Z,32.47
2022-10-15T10:09:36.615Z,34.63
2022-10-15T10:12:08.659Z,34.40
2022-10-15T10:15:13.490Z,33.20
2022-10-15T10:17:40.388Z,33.83
2022-10-15T10:20:16.416Z,36.97
2022-10-15T10:22:51.400Z,36.00
2022-10-15T10:25:36.420Z,33.60
2022-10-15T10:28:38.172Z,37.55
2022-10-15T10:31:08.086Z,31.23
2022-10-15T10:33:51.402Z,37.88
2022-10-15T10:36:30.342Z,34.03
2022-10-15T10:39:39.490Z,41.00
2022-10-15T10:42:09.692Z,34.50
2022-10-15T10:44:48.486Z,35.05
2022-10-15T10:47:22.298Z,35.50
2022-10-15T10:50:00.555Z,35.28
2022-10-15T10:52:29.238Z,36.65
2022-10-15T10:55:19.457Z,33.63
2022-10-15T10:58:03.444Z,32.97
2022-10-15T11:00:47.581Z,33.20
2022-10-15T11:03:36.263Z,34.08
2022-10-15T11:06:38.492Z,34.97
2022-10-15T11:09:56.071Z,32.13
2022-10-15T11:12:56.476Z,31.80
2022-10-15T11:15:46.043Z,33.35
2022-10-15T11:18:52.469Z,35.75
2022-10-15T11:21:55.602Z,37.58
2022-10-15T11:25:10.534Z,33.30
2022-10-15T11:27:37.399Z,31.88
2022-10-15T11:30:56.449Z,31.65
2022-10-15T11:33:32.842Z,37.35
2022-10-15T11:36:41.491Z,34.97
2022-10-15T11:39:26.458Z,33.13
2022-10-15T11:42:27.714Z,30.98
2022-10-15T11:45:22.469Z,29.63
2022-10-15T11:47:54.919Z,28.45
2022-10-15T11:50:46.482Z,29.20
2022-10-15T11:53:38.489Z,29.48
2022-10-15T11:56:26.445Z,33.50
2022-10-15T11:59:20.499Z,33.17
2022-10-15T12:01:57.518Z,30.95
2022-10-15T12:04:48.882Z,29.23
2022-10-15T12:07:35.454Z,32.22
2022-10-15T12:10:20.485Z,28.00
2022-10-15T12:13:12.673Z,32.50
2022-10-15T12:16:10.494Z,31.23
2022-10-15T12:18:46.125Z,31.15
2022-10-15T12:21:47.516Z,33.08
2022-10-15T12:24:45.487Z,33.20
2022-10-15T12:27:19.150Z,28.27
2022-10-15T12:30:10.644Z,33.13
2022-10-15T12:32:45.515Z,30.98
2022-10-15T12:37:56.552Z,28.88
2022-10-15T12:40:23.506Z,33.38
2022-10-15T12:43:10.553Z,27.45
2022-10-15T12:45:40.503Z,26.83
2022-10-15T12:48:22.516Z,28.73
2022-10-15T12:50:49.552Z,25.05
2022-10-15T12:56:10.459Z,25.13
2022-10-15T12:58:55.642Z,25.77
2022-10-15T13:01:22.661Z,26.88
2022-10-15T13:03:49.596Z,21.90
2022-10-15T13:06:29.626Z,25.00
2022-10-15T13:09:11.833Z,30.27
2022-10-15T13:11:54.636Z,28.90
2022-10-15T13:14:28.861Z,26.42
2022-10-15T13:17:02.542Z,23.98
2022-10-15T13:19:47.562Z,26.30
2022-10-15T13:22:28.877Z,26.45
2022-10-15T13:25:02.682Z,27.50
2022-10-15T13:27:36.973Z,26.30
2022-10-15T13:30:19.673Z,26.52
2022-10-15T13:32:54.554Z,24.25
2022-10-15T13:35:34.591Z,25.73
2022-10-15T13:38:07.517Z,21.05
2022-10-15T13:40:40.558Z,30.55
2022-10-15T13:43:20.961Z,29.60
2022-10-15T13:46:02.640Z,30.25
2022-10-15T13:48:38.628Z,30.27
2022-10-15T13:51:05.833Z,28.60
2022-10-15T13:53:42.612Z,26.30
2022-10-15T13:56:30.759Z,27.15
2022-10-15T13:59:08.587Z,29.80
2022-10-15T14:01:35.471Z,25.08
2022-10-15T14:04:09.616Z,22.13
2022-10-15T14:06:36.866Z,25.10
2022-10-15T14:09:27.595Z,23.65
2022-10-15T14:11:59.079Z,21.35
2022-10-15T14:14:40.576Z,21.95
2022-10-15T14:17:21.368Z,20.83
2022-10-15T14:22:53.676Z,21.58
2022-10-15T14:25:30.652Z,20.60
2022-10-15T14:27:57.674Z,21.58
2022-10-15T14:30:38.660Z,20.65
2022-10-15T14:33:05.484Z,21.27
2022-10-15T14:35:36.787Z,21.38
2022-10-15T14:38:22.672Z,23.48
2022-10-15T14:41:06.446Z,21.50
2022-10-15T14:43:46.700Z,21.33
2022-10-15T14:46:17.778Z,20.98
2022-10-15T14:48:51.684Z,22.20
2022-10-15T14:51:23.654Z,21.30
2022-10-15T14:53:57.659Z,21.10
2022-10-15T14:56:28.651Z,20.17
2022-10-15T14:58:59.546Z,21.38
2022-10-15T15:01:35.488Z,21.05
2022-10-15T15:04:02.561Z,19.73
2022-10-15T15:06:35.665Z,20.73
2022-10-15T15:09:09.666Z,20.55
2022-10-15T15:11:36.588Z,20.20
2022-10-15T15:14:03.994Z,22.05
2022-10-15T15:16:40.272Z,21.27
2022-10-15T15:19:08.954Z,20.50
2022-10-15T15:21:42.627Z,19.45
2022-10-15T15:24:15.648Z,19.30
2022-10-15T15:26:42.607Z,17.42
2022-10-15T15:29:13.644Z,19.40
2022-10-15T15:31:47.674Z,20.23
2022-10-15T15:34:14.678Z,19.00
2022-10-15T15:36:47.638Z,19.20
2022-10-15T15:39:14.669Z,18.83
2022-10-15T15:41:48.702Z,18.33
2022-10-15T15:44:15.657Z,19.13
2022-10-15T15:46:42.799Z,22.67
2022-10-15T15:49:16.711Z,20.42
2022-10-15T15:51:43.635Z,22.00
2022-10-15T15:54:16.705Z,20.85
2022-10-15T15:59:16.654Z,21.15
2022-10-15T16:01:43.618Z,20.48
2022-10-15T16:04:16.714Z,19.73
2022-10-15T16:06:43.729Z,20.77
2022-10-15T16:09:17.717Z,21.50
2022-10-15T16:11:45.956Z,23.52
2022-10-15T16:14:19.725Z,22.30
2022-10-15T16:16:46.657Z,22.85
2022-10-15T16:19:19.709Z,21.85
2022-10-15T16:21:46.717Z,21.08
2022-10-15T16:24:13.731Z,19.40
2022-10-15T16:26:47.679Z,19.80
2022-10-15T16:29:15.212Z,20.45
2022-10-15T16:31:48.669Z,20.02
2022-10-15T16:34:15.590Z,21.52
2022-10-15T16:36:48.723Z,18.88
2022-10-15T16:39:15.638Z,20.15
2022-10-15T16:41:48.785Z,23.33
2022-10-15T16:44:15.686Z,23.50
2022-10-15T16:46:42.564Z,21.15
2022-10-15T16:49:15.755Z,20.17
2022-10-15T16:51:43.792Z,20.73
2022-10-15T16:54:13.631Z,20.98
2022-10-15T16:56:50.472Z,20.73
2022-10-15T16:59:20.258Z,21.50
2022-10-15T17:01:53.761Z,20.42
2022-10-15T17:04:20.700Z,21.08
2022-10-15T17:06:53.674Z,21.67
2022-10-15T17:09:20.582Z,22.02
2022-10-15T17:11:53.709Z,23.27
2022-10-15T17:14:26.701Z,30.98
2022-10-15T17:16:59.712Z,30.13
2022-10-15T17:19:29.134Z,25.13
2022-10-15T17:22:05.733Z,25.48
2022-10-15T17:24:38.699Z,23.05
2022-10-15T17:27:15.093Z,23.67
2022-10-15T17:29:49.785Z,23.00
2022-10-15T17:32:25.531Z,30.30
2022-10-15T17:34:53.019Z,43.20
2022-10-15T17:37:23.025Z,44.88
2022-10-15T17:39:58.758Z,38.45
2022-10-15T17:42:26.502Z,31.58
2022-10-15T17:44:59.756Z,27.08
2022-10-15T17:47:27.005Z,25.33
2022-10-15T17:50:00.764Z,26.80
2022-10-15T17:52:27.662Z,25.33
2022-10-15T17:55:00.728Z,23.98
2022-10-15T17:57:28.238Z,22.15
2022-10-15T18:00:01.755Z,25.15
2022-10-15T18:02:28.657Z,33.03
2022-10-15T18:04:55.580Z,32.55
2022-10-15T18:07:28.759Z,27.63
2022-10-15T18:09:55.665Z,24.63
2022-10-15T18:12:28.787Z,22.15
2022-10-15T18:15:01.758Z,20.02
2022-10-15T18:17:34.764Z,21.88
2022-10-15T18:20:01.672Z,22.23
2022-10-15T18:22:38.222Z,22.88
2022-10-15T18:25:05.640Z,23.25
2022-10-15T18:27:46.168Z,22.23
2022-10-15T18:30:19.760Z,22.25
2022-10-15T18:32:54.537Z,21.30
2022-10-15T18:35:24.206Z,21.00
2022-10-15T18:37:57.738Z,21.52
2022-10-15T18:40:24.624Z,22.40
2022-10-15T18:42:57.752Z,21.98
2022-10-15T18:45:30.782Z,22.02
2022-10-15T18:47:57.779Z,21.63
2022-10-15T18:50:30.749Z,21.38
2022-10-15T18:52:57.606Z,21.58
2022-10-15T18:55:24.534Z,21.98
2022-10-15T18:57:57.795Z,22.63
2022-10-15T19:00:24.743Z,22.85
2022-10-15T19:02:57.782Z,25.05
2022-10-15T19:05:24.711Z,23.15
2022-10-15T19:07:57.836Z,22.98
2022-10-15T19:10:24.785Z,22.48
2022-10-15T19:12:57.780Z,22.17
2022-10-15T19:15:24.668Z,21.83
2022-10-15T19:17:57.867Z,22.13
2022-10-15T19:20:24.832Z,23.13
2022-10-15T19:22:57.768Z,23.27
2022-10-15T19:25:30.784Z,22.85
2022-10-15T19:27:57.759Z,22.27
2022-10-15T19:30:30.809Z,21.98
2022-10-15T19:32:57.682Z,23.02
2022-10-15T19:35:30.780Z,22.52
2022-10-15T19:37:57.701Z,23.48
2022-10-15T19:40:30.835Z,23.42
2022-10-15T19:42:57.732Z,26.38
2022-10-15T19:45:24.621Z,26.55
2022-10-15T19:48:01.545Z,28.00
2022-10-15T19:50:29.739Z,26.38
2022-10-15T19:53:02.839Z,26.05
2022-10-15T19:55:31.025Z,28.88
2022-10-15T19:58:04.883Z,28.70
2022-10-15T20:00:31.757Z,30.17
2022-10-15T20:03:04.793Z,31.02
2022-10-15T20:05:37.874Z,30.63
2022-10-15T20:08:11.915Z,30.48
2022-10-15T20:10:46.712Z,31.75
2022-10-15T20:13:21.860Z,31.05
2022-10-15T20:15:51.807Z,29.55
2022-10-15T20:18:25.832Z,30.42
2022-10-15T20:20:59.840Z,29.70
2022-10-15T20:23:26.788Z,29.65
2022-10-15T20:25:59.822Z,29.65
2022-10-15T20:28:32.924Z,29.17
2022-10-15T20:31:04.537Z,28.60
2022-10-15T20:33:37.843Z,27.20
2022-10-15T20:36:08.755Z,27.67
2022-10-15T20:38:35.720Z,28.45
2022-10-15T20:41:20.897Z,30.20
2022-10-15T20:43:55.065Z,29.83
2022-10-15T20:46:43.840Z,29.40
2022-10-15T20:49:14.381Z,30.33
2022-10-15T20:51:42.879Z,29.60
2022-10-15T20:54:16.840Z,28.83
2022-10-15T20:56:43.770Z,28.20
2022-10-15T20:59:16.863Z,29.10
2022-10-15T21:01:43.771Z,28.90
2022-10-15T21:04:16.838Z,27.45
2022-10-15T21:06:49.826Z,29.45
2022-10-15T21:09:22.871Z,29.30
2022-10-15T21:11:49.698Z,26.95
2022-10-15T21:14:22.846Z,27.30
2022-10-15T21:16:49.704Z,28.15
2022-10-15T21:19:22.869Z,29.83
2022-10-15T21:21:49.676Z,28.55
2022-10-15T21:24:16.878Z,28.58
2022-10-15T21:26:49.904Z,27.60
2022-10-15T21:29:16.858Z,26.80
2022-10-15T21:31:50.924Z,27.80
2022-10-15T21:34:18.166Z,29.23
2022-10-15T21:36:51.915Z,27.65
2022-10-15T21:39:24.898Z,27.65
2022-10-15T21:41:51.752Z,28.45
2022-10-15T21:44:24.862Z,26.90
2022-10-15T21:46:51.750Z,28.15
2022-10-15T21:49:24.865Z,26.45
2022-10-15T21:51:51.739Z,30.40
2022-10-15T21:54:24.883Z,28.17
2022-10-15T21:56:51.765Z,30.77
2022-10-15T21:59:24.870Z,29.55
2022-10-15T22:01:51.753Z,31.35
2022-10-15T22:04:24.888Z,30.30
2022-10-15T22:06:51.761Z,29.70
2022-10-15T22:09:24.855Z,28.00
2022-10-15T22:11:51.683Z,27.25
2022-10-15T22:14:18.515Z,27.92
2022-10-15T22:16:51.900Z,27.48
2022-10-15T22:19:18.748Z,31.10
2022-10-15T22:21:51.893Z,30.67
2022-10-15T22:24:25.874Z,29.65
2022-10-15T22:26:59.981Z,27.75
2022-10-15T22:29:33.045Z,26.15
2022-10-15T22:32:07.880Z,26.75
2022-10-15T22:34:40.959Z,27.15
2022-10-15T22:37:07.791Z,27.35
2022-10-15T22:39:34.655Z,27.83
2022-10-15T22:42:08.900Z,28.45
2022-10-15T22:44:35.770Z,27.20
2022-10-15T22:47:02.610Z,28.08
2022-10-15T22:49:35.910Z,29.17
2022-10-15T22:52:02.790Z,28.20
2022-10-15T22:54:35.900Z,28.85
2022-10-15T22:57:02.715Z,26.73
2022-10-15T22:59:35.940Z,27.58
2022-10-15T23:02:08.983Z,28.98
2022-10-15T23:04:35.830Z,27.25
2022-10-15T23:07:08.977Z,27.88
2022-10-15T23:09:35.798Z,29.05
2022-10-15T23:12:08.935Z,28.63
2022-10-15T23:14:35.850Z,28.27
2022-10-15T23:17:08.916Z,27.67
2022-10-15T23:19:35.795Z,27.08
2022-10-15T23:22:02.663Z,28.27
2022-10-15T23:24:35.929Z,27.42
2022-10-15T23:27:02.850Z,28.02
2022-10-15T23:29:36.916Z,27.25
2022-10-15T23:32:04.031Z,28.23
2022-10-15T23:34:36.918Z,26.73
2022-10-15T23:37:03.820Z,29.00
2022-10-15T23:39:36.981Z,28.45
2022-10-15T23:42:03.904Z,28.63
2022-10-15T23:44:39.958Z,28.10
2022-10-15T23:47:06.843Z,27.73
2022-10-15T23:49:33.698Z,28.10
2022-10-15T23:52:06.970Z,27.00
2022-10-15T23:54:34.108Z,27.00
2022-10-15T23:57:07.928Z,28.58
2022-10-15T23:59:34.778Z,27.73
